createdAt,value
2022-09-07T00:03:05.895Z,61.34
2022-09-07T00:08:09.252Z,61.05
2022-09-07T00:13:13.774Z,61.25
2022-09-07T00:18:17.164Z,61.75
2022-09-07T00:23:20.340Z,62.09
2022-09-07T00:28:24.996Z,62.19
2022-09-07T00:33:28.795Z,61.87
2022-09-07T00:38:32.240Z,61.44
2022-09-07T00:43:37.890Z,62.30
2022-09-07T00:48:45.055Z,62.35
2022-09-07T00:53:53.776Z,63.02
2022-09-07T00:58:58.890Z,63.15
2022-09-07T01:04:02.348Z,63.69
2022-09-07T01:09:07.692Z,64.24
2022-09-07T01:14:16.110Z,64.11
2022-09-07T01:19:32.035Z,63.92
2022-09-07T01:24:52.220Z,64.46
2022-09-07T01:30:01.637Z,64.02
2022-09-07T01:35:07.434Z,64.08
2022-09-07T01:40:13.585Z,64.23
2022-09-07T01:45:20.712Z,64.63
2022-09-07T01:50:26.224Z,64.71
2022-09-07T01:55:34.092Z,65.22
2022-09-07T02:00:39.949Z,64.88
2022-09-07T02:05:47.030Z,64.98
2022-09-07T02:10:51.644Z,65.58
2022-09-07T02:15:59.155Z,65.54
2022-09-07T02:21:04.146Z,66.15
2022-09-07T02:26:10.546Z,66.97
2022-09-07T02:31:16.004Z,67.62
2022-09-07T02:36:20.963Z,67.41
2022-09-07T02:41:31.855Z,67.66
2022-09-07T02:46:46.985Z,68.36
2022-09-07T02:51:56.560Z,69.59
2022-09-07T02:57:03.081Z,69.80
2022-09-07T03:02:12.602Z,70.18
2022-09-07T03:07:17.582Z,71.23
2022-09-07T03:12:20.583Z,71.73
2022-09-07T03:17:24.878Z,72.28
2022-09-07T03:22:28.496Z,72.63
2022-09-07T03:27:31.734Z,72.25
2022-09-07T03:32:36.903Z,72.31
2022-09-07T03:37:39.978Z,72.73
2022-09-07T03:42:43.133Z,72.23
2022-09-07T03:47:47.496Z,71.06
2022-09-07T03:52:50.504Z,71.18
2022-09-07T03:57:53.697Z,70.90
2022-09-07T04:02:58.049Z,71.35
2022-09-07T04:08:01.234Z,71.80
2022-09-07T04:13:04.321Z,72.39
2022-09-07T04:18:08.809Z,72.16
2022-09-07T04:23:11.818Z,72.98
2022-09-07T04:28:14.856Z,73.16
2022-09-07T04:33:19.194Z,73.54
2022-09-07T04:38:22.179Z,73.90
2022-09-07T04:43:25.154Z,74.14
2022-09-07T04:48:29.723Z,74.28
2022-09-07T04:53:32.895Z,74.98
2022-09-07T04:58:36.445Z,74.66
2022-09-07T05:03:40.858Z,74.29
2022-09-07T05:08:44.947Z,73.59
2022-09-07T05:13:48.042Z,73.07
2022-09-07T05:18:53.157Z,72.38
2022-09-07T05:23:57.026Z,71.96
2022-09-07T05:39:31.574Z,72.21
2022-09-07T05:44:44.935Z,71.38
2022-09-07T05:49:51.134Z,70.98
2022-09-07T05:55:07.434Z,70.58
2022-09-07T06:00:16.465Z,70.13
2022-09-07T06:05:20.818Z,69.33
2022-09-07T06:15:46.899Z,68.50
2022-09-07T06:20:51.187Z,67.52
2022-09-07T06:25:54.196Z,66.79
2022-09-07T06:31:00.087Z,65.46
2022-09-07T06:36:05.829Z,64.77
2022-09-07T06:51:58.586Z,63.18
2022-09-07T06:57:08.040Z,63.08
2022-09-07T07:02:12.637Z,62.80
2022-09-07T07:07:16.967Z,62.43
2022-09-07T07:17:21.939Z,61.76
2022-09-07T07:27:49.542Z,60.39
2022-09-07T07:32:53.087Z,59.69
2022-09-07T07:43:20.397Z,57.27
2022-09-07T07:53:44.658Z,54.89
2022-09-07T07:58:48.396Z,54.10
2022-09-07T08:03:52.023Z,53.25
2022-09-07T08:08:56.327Z,53.32
2022-09-07T08:14:00.354Z,52.65
2022-09-07T08:19:03.469Z,52.30
2022-09-07T08:24:08.088Z,51.58
2022-09-07T08:29:11.765Z,49.61
2022-09-07T08:34:14.717Z,49.31
2022-09-07T08:39:19.125Z,47.98
2022-09-07T08:44:23.539Z,47.85
2022-09-07T08:49:30.225Z,46.90
2022-09-07T08:54:34.727Z,46.93
2022-09-07T08:59:40.835Z,46.37
2022-09-07T09:10:13.879Z,45.81
2022-09-07T09:15:21.243Z,45.36
2022-09-07T09:20:27.342Z,45.53
2022-09-07T09:25:36.719Z,45.31
2022-09-07T09:30:48.325Z,45.05
2022-09-07T09:36:00.852Z,44.90
2022-09-07T09:41:06.899Z,43.46
2022-09-07T09:46:21.585Z,42.21
2022-09-07T09:56:50.795Z,38.23
2022-09-07T10:07:20.892Z,37.22
2022-09-07T10:12:26.341Z,37.61
2022-09-07T10:17:31.035Z,37.63
2022-09-07T10:22:35.299Z,37.03
2022-09-07T10:27:41.025Z,36.70
2022-09-07T10:32:59.463Z,35.80
2022-09-07T10:38:15.076Z,36.10
2022-09-07T10:43:24.519Z,35.73
2022-09-07T10:48:32.153Z,35.03
2022-09-07T10:53:42.695Z,35.29
2022-09-07T10:59:04.202Z,34.86
2022-09-07T11:04:25.829Z,34.54
2022-09-07T11:09:51.669Z,34.42
2022-09-07T11:14:59.417Z,33.47
2022-09-07T11:20:04.654Z,34.00
2022-09-07T11:25:30.195Z,33.93
2022-09-07T11:30:36.122Z,31.36
2022-09-07T11:35:45.454Z,29.41
2022-09-07T11:40:56.254Z,29.05
2022-09-07T11:46:04.999Z,28.23
2022-09-07T11:51:10.357Z,27.05
2022-09-07T11:56:16.335Z,27.68
2022-09-07T12:01:27.676Z,27.42
2022-09-07T12:06:45.536Z,26.03
2022-09-07T12:12:01.257Z,26.08
2022-09-07T12:17:16.023Z,25.69
2022-09-07T12:22:21.338Z,25.24
2022-09-07T12:27:37.600Z,25.11
2022-09-07T12:32:58.910Z,25.23
2022-09-07T12:38:06.007Z,25.46
2022-09-07T12:43:27.647Z,25.29
2022-09-07T12:48:35.847Z,24.82
2022-09-07T12:53:46.810Z,24.22
2022-09-07T12:59:01.095Z,24.07
2022-09-07T13:04:19.759Z,24.27
2022-09-07T13:09:31.156Z,24.53
2022-09-07T13:14:37.815Z,24.86
2022-09-07T13:19:59.380Z,25.40
2022-09-07T13:25:23.935Z,25.54
2022-09-07T13:30:37.099Z,26.16
2022-09-07T13:35:45.808Z,26.40
2022-09-07T13:40:52.198Z,26.44
2022-09-07T13:46:01.477Z,26.50
2022-09-07T13:51:07.887Z,26.35
2022-09-07T13:56:16.961Z,26.91
2022-09-07T14:01:21.578Z,27.34
2022-09-07T14:06:30.056Z,27.85
2022-09-07T14:11:41.552Z,28.41
2022-09-07T14:16:45.904Z,28.84
2022-09-07T14:21:59.233Z,29.20
2022-09-07T14:27:04.851Z,29.43
2022-09-07T14:32:11.821Z,29.61
2022-09-07T14:37:16.312Z,29.98
2022-09-07T14:42:23.124Z,29.68
2022-09-07T14:47:29.152Z,30.03
2022-09-07T14:52:36.781Z,30.51
2022-09-07T14:57:45.131Z,31.29
2022-09-07T15:02:48.268Z,31.50
2022-09-07T15:07:52.465Z,31.77
2022-09-07T15:12:58.013Z,32.08
2022-09-07T15:18:07.796Z,32.28
2022-09-07T15:23:13.155Z,32.28
2022-09-07T15:33:47.357Z,32.45
2022-09-07T15:39:05.581Z,33.21
2022-09-07T15:44:09.932Z,33.98
2022-09-07T15:49:13.531Z,34.05
2022-09-07T15:54:17.219Z,35.05
2022-09-07T15:59:21.716Z,35.50
2022-09-07T16:04:24.711Z,36.46
2022-09-07T16:09:27.877Z,36.70
2022-09-07T16:14:35.063Z,35.88
2022-09-07T16:19:40.999Z,36.50
2022-09-07T16:24:44.265Z,36.68
2022-09-07T16:29:49.150Z,36.82
2022-09-07T16:34:52.120Z,37.09
2022-09-07T16:39:55.102Z,37.40
2022-09-07T16:46:02.521Z,37.52
2022-09-07T16:50:23.469Z,37.71
2022-09-07T16:55:26.518Z,38.17
2022-09-07T17:00:33.893Z,38.71
2022-09-07T17:05:39.291Z,39.08
2022-09-07T17:10:42.291Z,39.08
2022-09-07T17:15:46.828Z,39.50
2022-09-07T17:20:55.084Z,38.97
2022-09-07T17:26:03.988Z,38.68
2022-09-07T17:31:09.852Z,38.43
2022-09-07T17:36:13.822Z,38.24
2022-09-07T17:41:18.515Z,38.66
2022-09-07T17:46:24.023Z,39.17
2022-09-07T17:51:27.912Z,39.21
2022-09-07T17:56:31.672Z,39.39
2022-09-07T18:01:35.984Z,40.22
2022-09-07T18:06:39.302Z,40.35
2022-09-07T18:11:45.403Z,39.94
2022-09-07T18:16:50.833Z,40.57
2022-09-07T18:21:53.896Z,40.85
2022-09-07T18:26:56.884Z,41.00
2022-09-07T18:32:02.262Z,40.98
2022-09-07T18:37:05.633Z,40.56
2022-09-07T18:42:08.921Z,41.21
2022-09-07T18:47:22.193Z,41.40
2022-09-07T18:57:49.952Z,41.84
2022-09-07T19:02:54.342Z,41.65
2022-09-07T19:07:57.366Z,41.98
2022-09-07T19:13:00.353Z,41.90
2022-09-07T19:18:05.762Z,42.48
2022-09-07T19:23:10.630Z,42.46
2022-09-07T19:28:14.396Z,42.58
2022-09-07T19:33:18.774Z,42.59
2022-09-07T19:38:22.050Z,42.73
2022-09-07T19:43:25.120Z,42.99
2022-09-07T19:48:31.704Z,43.13
2022-09-07T19:53:35.957Z,43.72
2022-09-07T19:58:40.067Z,43.65
2022-09-07T20:03:50.462Z,43.59
2022-09-07T20:08:53.414Z,44.21
2022-09-07T20:13:56.979Z,44.23
2022-09-07T20:19:01.274Z,45.06
2022-09-07T20:24:04.454Z,45.34
2022-09-07T20:34:32.218Z,45.60
2022-09-07T20:39:39.043Z,45.85
2022-09-07T20:44:42.381Z,46.60
2022-09-07T20:49:46.989Z,46.57
2022-09-07T20:54:50.132Z,46.92
2022-09-07T20:59:53.288Z,46.86
2022-09-07T21:04:57.578Z,47.18
2022-09-07T21:10:03.404Z,47.58
2022-09-07T21:15:09.959Z,47.92
2022-09-07T21:20:14.182Z,48.25
2022-09-07T21:25:17.765Z,48.59
2022-09-07T21:30:20.687Z,48.10
2022-09-07T21:35:24.960Z,48.52
2022-09-07T21:40:28.176Z,48.53
2022-09-07T21:45:32.275Z,49.24
2022-09-07T21:50:36.582Z,49.93
2022-09-07T21:55:39.497Z,49.77
2022-09-07T22:00:42.449Z,50.16
2022-09-07T22:05:49.317Z,50.56
2022-09-07T22:10:52.289Z,50.41
2022-09-07T22:15:55.293Z,51.01
2022-09-07T22:21:03.142Z,50.45
2022-09-07T22:26:06.576Z,50.80
2022-09-07T22:31:10.443Z,51.06
2022-09-07T22:36:16.247Z,50.16
2022-09-07T22:41:20.385Z,49.61
2022-09-07T22:46:24.274Z,49.87
2022-09-07T22:51:29.920Z,50.39
2022-09-07T22:56:34.037Z,50.67
2022-09-07T23:01:37.130Z,50.75
2022-09-07T23:06:42.406Z,52.14
2022-09-07T23:11:46.242Z,52.82
2022-09-07T23:16:49.587Z,53.35
2022-09-07T23:21:53.862Z,54.16
2022-09-07T23:26:56.760Z,55.04
2022-09-07T23:31:59.703Z,55.94
2022-09-07T23:37:04.006Z,55.55
2022-09-07T23:42:07.098Z,55.45
2022-09-07T23:47:10.046Z,55.24
2022-09-07T23:52:14.334Z,54.99
2022-09-07T23:57:17.302Z,55.38
